sensor_id;sensor_type;location;lat;lon;timestamp;pressure;altitude;pressure_sealevel;temperature;humidity
21359;BME280;13506;50.852;20.632;2023-01-26T00:01:26;99012.91;;;-1.28;95.64
21359;BME280;13506;50.852;20.632;2023-01-26T00:03:55;98998.50;;;-1.38;96.06
21359;BME280;13506;50.852;20.632;2023-01-26T00:06:24;99007.28;;;-1.56;95.75
21359;BME280;13506;50.852;20.632;2023-01-26T00:08:54;98996.28;;;-1.66;95.92
21359;BME280;13506;50.852;20.632;2023-01-26T00:11:23;98995.94;;;-1.38;94.51
21359;BME280;13506;50.852;20.632;2023-01-26T00:13:53;98993.50;;;-1.49;94.81
21359;BME280;13506;50.852;20.632;2023-01-26T00:16:22;98995.44;;;-1.65;95.96
21359;BME280;13506;50.852;20.632;2023-01-26T00:18:51;98995.34;;;-1.57;96.18
21359;BME280;13506;50.852;20.632;2023-01-26T00:21:21;98989.31;;;-1.53;95.84
21359;BME280;13506;50.852;20.632;2023-01-26T00:23:50;99006.59;;;-1.69;95.60
21359;BME280;13506;50.852;20.632;2023-01-26T00:26:20;98990.31;;;-1.67;95.20
21359;BME280;13506;50.852;20.632;2023-01-26T00:28:49;98991.66;;;-1.39;94.19
21359;BME280;13506;50.852;20.632;2023-01-26T00:31:21;98983.97;;;-1.39;93.28
21359;BME280;13506;50.852;20.632;2023-01-26T00:33:50;98980.50;;;-1.34;93.12
21359;BME280;13506;50.852;20.632;2023-01-26T00:36:19;98969.16;;;-1.19;93.06
21359;BME280;13506;50.852;20.632;2023-01-26T00:38:48;98975.81;;;-1.07;92.25
21359;BME280;13506;50.852;20.632;2023-01-26T00:41:15;98974.94;;;-1.04;92.31
21359;BME280;13506;50.852;20.632;2023-01-26T00:44:01;98978.94;;;-1.47;93.59
21359;BME280;13506;50.852;20.632;2023-01-26T00:46:30;98977.19;;;-1.43;93.33
21359;BME280;13506;50.852;20.632;2023-01-26T00:49:00;98973.38;;;-1.80;94.19
21359;BME280;13506;50.852;20.632;2023-01-26T00:51:28;98983.00;;;-1.97;95.26
21359;BME280;13506;50.852;20.632;2023-01-26T00:53:56;98982.88;;;-1.90;95.68
21359;BME280;13506;50.852;20.632;2023-01-26T00:56:24;98975.81;;;-1.69;95.73
21359;BME280;13506;50.852;20.632;2023-01-26T00:58:53;98969.84;;;-1.71;96.09
21359;BME280;13506;50.852;20.632;2023-01-26T01:01:21;98972.47;;;-1.74;94.97
21359;BME280;13506;50.852;20.632;2023-01-26T01:03:50;98968.31;;;-1.84;96.10
21359;BME280;13506;50.852;20.632;2023-01-26T01:06:18;98979.72;;;-2.13;98.49
21359;BME280;13506;50.852;20.632;2023-01-26T01:08:46;98977.22;;;-2.19;97.26
21359;BME280;13506;50.852;20.632;2023-01-26T01:11:15;98972.88;;;-2.10;97.35
21359;BME280;13506;50.852;20.632;2023-01-26T01:13:42;98971.47;;;-2.40;97.76
21359;BME280;13506;50.852;20.632;2023-01-26T01:16:14;98973.94;;;-2.29;97.11
21359;BME280;13506;50.852;20.632;2023-01-26T01:18:43;98974.78;;;-2.32;97.40
21359;BME280;13506;50.852;20.632;2023-01-26T01:21:15;98984.97;;;-2.22;97.54
21359;BME280;13506;50.852;20.632;2023-01-26T01:23:43;98983.91;;;-2.03;95.36
21359;BME280;13506;50.852;20.632;2023-01-26T01:26:12;98976.59;;;-2.41;97.45
21359;BME280;13506;50.852;20.632;2023-01-26T01:28:42;98966.22;;;-2.28;97.07
21359;BME280;13506;50.852;20.632;2023-01-26T01:31:12;98971.19;;;-2.12;95.88
21359;BME280;13506;50.852;20.632;2023-01-26T01:33:41;98967.56;;;-1.96;95.08
21359;BME280;13506;50.852;20.632;2023-01-26T01:36:13;98965.63;;;-1.77;95.14
21359;BME280;13506;50.852;20.632;2023-01-26T01:38:44;98966.38;;;-1.67;93.01
21359;BME280;13506;50.852;20.632;2023-01-26T01:41:13;98957.63;;;-1.51;92.85
21359;BME280;13506;50.852;20.632;2023-01-26T01:43:42;98959.66;;;-1.76;94.90
21359;BME280;13506;50.852;20.632;2023-01-26T01:46:21;98957.16;;;-1.80;94.19
21359;BME280;13506;50.852;20.632;2023-01-26T01:48:55;98955.75;;;-2.06;94.29
21359;BME280;13506;50.852;20.632;2023-01-26T01:51:33;98942.88;;;-2.03;94.04
21359;BME280;13506;50.852;20.632;2023-01-26T01:54:08;98943.63;;;-1.93;95.42
21359;BME280;13506;50.852;20.632;2023-01-26T01:56:41;98939.34;;;-1.91;94.76
21359;BME280;13506;50.852;20.632;2023-01-26T01:59:11;98941.00;;;-1.89;94.47
21359;BME280;13506;50.852;20.632;2023-01-26T02:01:39;98932.16;;;-1.66;93.84
21359;BME280;13506;50.852;20.632;2023-01-26T02:04:08;98934.63;;;-1.60;92.78
21359;BME280;13506;50.852;20.632;2023-01-26T02:06:46;98930.19;;;-1.47;92.74
21359;BME280;13506;50.852;20.632;2023-01-26T02:09:16;98923.19;;;-1.36;93.12
21359;BME280;13506;50.852;20.632;2023-01-26T02:11:59;98909.78;;;-1.55;92.00
21359;BME280;13506;50.852;20.632;2023-01-26T02:14:29;98912.19;;;-1.44;91.24
21359;BME280;13506;50.852;20.632;2023-01-26T02:16:58;98915.16;;;-1.72;93.05
21359;BME280;13506;50.852;20.632;2023-01-26T02:19:38;98911.47;;;-2.20;94.67
21359;BME280;13506;50.852;20.632;2023-01-26T02:22:21;98905.28;;;-2.02;92.43
21359;BME280;13506;50.852;20.632;2023-01-26T02:24:57;98906.84;;;-1.89;92.34
21359;BME280;13506;50.852;20.632;2023-01-26T02:27:29;98895.66;;;-1.85;92.27
21359;BME280;13506;50.852;20.632;2023-01-26T02:29:59;98895.91;;;-2.05;92.82
21359;BME280;13506;50.852;20.632;2023-01-26T02:32:28;98902.97;;;-2.25;93.36
21359;BME280;13506;50.852;20.632;2023-01-26T02:34:56;98903.34;;;-2.58;95.36
21359;BME280;13506;50.852;20.632;2023-01-26T02:37:24;98898.94;;;-2.45;96.67
21359;BME280;13506;50.852;20.632;2023-01-26T02:39:57;98897.72;;;-2.15;94.74
21359;BME280;13506;50.852;20.632;2023-01-26T02:42:28;98886.34;;;-1.94;94.38
21359;BME280;13506;50.852;20.632;2023-01-26T02:45:05;98890.34;;;-1.71;93.37
21359;BME280;13506;50.852;20.632;2023-01-26T02:47:33;98879.91;;;-1.57;92.48
21359;BME280;13506;50.852;20.632;2023-01-26T02:50:05;98884.00;;;-1.47;92.04
21359;BME280;13506;50.852;20.632;2023-01-26T02:52:33;98880.97;;;-1.72;92.66
21359;BME280;13506;50.852;20.632;2023-01-26T02:55:09;98892.91;;;-1.70;93.60
21359;BME280;13506;50.852;20.632;2023-01-26T02:57:53;98874.69;;;-1.53;92.49
21359;BME280;13506;50.852;20.632;2023-01-26T03:00:24;98879.09;;;-2.28;96.35
21359;BME280;13506;50.852;20.632;2023-01-26T03:02:54;98877.66;;;-2.50;97.87
21359;BME280;13506;50.852;20.632;2023-01-26T03:05:25;98876.38;;;-2.12;96.75
21359;BME280;13506;50.852;20.632;2023-01-26T03:07:54;98870.72;;;-2.42;98.41
21359;BME280;13506;50.852;20.632;2023-01-26T03:10:26;98868.81;;;-2.26;97.46
21359;BME280;13506;50.852;20.632;2023-01-26T03:12:55;98863.84;;;-2.38;98.11
21359;BME280;13506;50.852;20.632;2023-01-26T03:15:24;98864.09;;;-2.58;98.81
21359;BME280;13506;50.852;20.632;2023-01-26T03:18:11;98864.09;;;-2.61;99.70
21359;BME280;13506;50.852;20.632;2023-01-26T03:20:59;98854.84;;;-2.73;100.00
21359;BME280;13506;50.852;20.632;2023-01-26T03:23:46;98857.16;;;-2.50;99.39
21359;BME280;13506;50.852;20.632;2023-01-26T03:26:33;98876.06;;;-2.63;98.59
21359;BME280;13506;50.852;20.632;2023-01-26T03:29:20;98865.63;;;-2.43;97.15
21359;BME280;13506;50.852;20.632;2023-01-26T03:31:49;98866.31;;;-2.29;96.74
21359;BME280;13506;50.852;20.632;2023-01-26T03:34:18;98857.75;;;-2.26;95.87
21359;BME280;13506;50.852;20.632;2023-01-26T03:36:47;98867.09;;;-2.22;95.58
21359;BME280;13506;50.852;20.632;2023-01-26T03:39:17;98859.19;;;-2.07;94.85
21359;BME280;13506;50.852;20.632;2023-01-26T03:42:04;98856.28;;;-2.49;96.15
21359;BME280;13506;50.852;20.632;2023-01-26T03:44:51;98849.25;;;-2.32;95.85
21359;BME280;13506;50.852;20.632;2023-01-26T03:47:39;98844.09;;;-2.30;95.29
21359;BME280;13506;50.852;20.632;2023-01-26T03:50:25;98843.91;;;-2.13;94.71
21359;BME280;13506;50.852;20.632;2023-01-26T03:53:15;98845.13;;;-2.45;95.89
21359;BME280;13506;50.852;20.632;2023-01-26T03:56:02;98842.88;;;-2.73;96.86
21359;BME280;13506;50.852;20.632;2023-01-26T03:58:45;98846.41;;;-2.81;98.67
21359;BME280;13506;50.852;20.632;2023-01-26T04:01:15;98844.72;;;-2.87;99.50
21359;BME280;13506;50.852;20.632;2023-01-26T04:03:49;98842.78;;;-2.63;97.64
21359;BME280;13506;50.852;20.632;2023-01-26T04:06:36;98840.34;;;-2.74;97.32
21359;BME280;13506;50.852;20.632;2023-01-26T04:09:22;98835.25;;;-2.76;96.99
21359;BME280;13506;50.852;20.632;2023-01-26T04:11:50;98833.03;;;-3.10;97.76
21359;BME280;13506;50.852;20.632;2023-01-26T04:14:19;98834.72;;;-3.10;98.10
21359;BME280;13506;50.852;20.632;2023-01-26T04:17:06;98817.72;;;-3.16;97.86
21359;BME280;13506;50.852;20.632;2023-01-26T04:19:52;98820.34;;;-3.22;97.55
21359;BME280;13506;50.852;20.632;2023-01-26T04:22:41;98804.06;;;-3.15;97.34
21359;BME280;13506;50.852;20.632;2023-01-26T04:25:13;98807.28;;;-2.96;96.32
21359;BME280;13506;50.852;20.632;2023-01-26T04:27:42;98814.97;;;-2.94;96.48
21359;BME280;13506;50.852;20.632;2023-01-26T04:30:13;98816.69;;;-2.99;95.91
21359;BME280;13506;50.852;20.632;2023-01-26T04:32:44;98803.41;;;-3.38;96.98
21359;BME280;13506;50.852;20.632;2023-01-26T04:35:13;98806.16;;;-3.58;99.26
21359;BME280;13506;50.852;20.632;2023-01-26T04:37:43;98819.78;;;-3.58;100.00
21359;BME280;13506;50.852;20.632;2023-01-26T04:40:12;98804.31;;;-3.42;100.00
21359;BME280;13506;50.852;20.632;2023-01-26T04:42:41;98804.94;;;-3.16;99.12
21359;BME280;13506;50.852;20.632;2023-01-26T04:45:10;98806.38;;;-2.92;98.50
21359;BME280;13506;50.852;20.632;2023-01-26T04:47:39;98804.53;;;-2.76;97.39
21359;BME280;13506;50.852;20.632;2023-01-26T04:50:10;98804.34;;;-2.62;96.37
21359;BME280;13506;50.852;20.632;2023-01-26T04:52:38;98806.81;;;-2.53;95.94
21359;BME280;13506;50.852;20.632;2023-01-26T04:55:07;98799.31;;;-2.68;97.11
21359;BME280;13506;50.852;20.632;2023-01-26T04:57:35;98791.34;;;-2.46;96.77
21359;BME280;13506;50.852;20.632;2023-01-26T05:00:06;98798.13;;;-2.41;96.27
21359;BME280;13506;50.852;20.632;2023-01-26T05:02:35;98794.53;;;-2.28;95.38
21359;BME280;13506;50.852;20.632;2023-01-26T05:05:04;98799.63;;;-2.24;95.17
21359;BME280;13506;50.852;20.632;2023-01-26T05:07:34;98789.53;;;-2.35;94.24
21359;BME280;13506;50.852;20.632;2023-01-26T05:10:04;98789.47;;;-3.06;98.33
21359;BME280;13506;50.852;20.632;2023-01-26T05:12:45;98784.13;;;-2.83;97.71
21359;BME280;13506;50.852;20.632;2023-01-26T05:15:22;98785.72;;;-2.72;97.98
21359;BME280;13506;50.852;20.632;2023-01-26T05:17:57;98798.16;;;-3.20;98.87
21359;BME280;13506;50.852;20.632;2023-01-26T05:20:44;98784.41;;;-3.10;100.00
21359;BME280;13506;50.852;20.632;2023-01-26T05:23:34;98778.56;;;-3.25;99.98
21359;BME280;13506;50.852;20.632;2023-01-26T05:26:37;98785.69;;;-3.58;100.00
21359;BME280;13506;50.852;20.632;2023-01-26T05:29:10;98785.50;;;-3.35;100.00
21359;BME280;13506;50.852;20.632;2023-01-26T05:31:38;98782.16;;;-3.45;100.00
21359;BME280;13506;50.852;20.632;2023-01-26T05:34:07;98775.28;;;-3.38;100.00
21359;BME280;13506;50.852;20.632;2023-01-26T05:36:36;98781.13;;;-3.24;100.00
21359;BME280;13506;50.852;20.632;2023-01-26T05:39:07;98777.84;;;-3.35;100.00
21359;BME280;13506;50.852;20.632;2023-01-26T05:41:36;98783.94;;;-3.55;100.00
21359;BME280;13506;50.852;20.632;2023-01-26T05:44:27;98790.91;;;-3.71;100.00
21359;BME280;13506;50.852;20.632;2023-01-26T05:47:06;98784.72;;;-3.46;100.00
21359;BME280;13506;50.852;20.632;2023-01-26T05:49:34;98788.75;;;-3.19;100.00
21359;BME280;13506;50.852;20.632;2023-01-26T05:52:08;98786.91;;;-3.03;100.00
21359;BME280;13506;50.852;20.632;2023-01-26T05:54:37;98782.47;;;-2.87;99.03
21359;BME280;13506;50.852;20.632;2023-01-26T05:57:07;98788.28;;;-2.72;97.97
21359;BME280;13506;50.852;20.632;2023-01-26T05:59:38;98794.06;;;-2.57;98.30
21359;BME280;13506;50.852;20.632;2023-01-26T06:02:10;98797.69;;;-2.75;98.06
21359;BME280;13506;50.852;20.632;2023-01-26T06:04:40;98797.63;;;-2.71;98.24
21359;BME280;13506;50.852;20.632;2023-01-26T06:07:09;98798.41;;;-2.65;97.89
21359;BME280;13506;50.852;20.632;2023-01-26T06:09:47;98783.78;;;-2.53;96.96
21359;BME280;13506;50.852;20.632;2023-01-26T06:12:35;98793.78;;;-2.34;96.90
21359;BME280;13506;50.852;20.632;2023-01-26T06:15:19;98793.53;;;-2.17;95.67
21359;BME280;13506;50.852;20.632;2023-01-26T06:17:48;98789.09;;;-2.04;95.47
21359;BME280;13506;50.852;20.632;2023-01-26T06:20:18;98779.66;;;-2.01;93.80
21359;BME280;13506;50.852;20.632;2023-01-26T06:22:59;98777.84;;;-1.96;93.64
21359;BME280;13506;50.852;20.632;2023-01-26T06:25:30;98783.72;;;-1.86;93.70
21359;BME280;13506;50.852;20.632;2023-01-26T06:27:58;98775.13;;;-1.83;93.65
21359;BME280;13506;50.852;20.632;2023-01-26T06:30:27;98782.72;;;-1.77;92.96
21359;BME280;13506;50.852;20.632;2023-01-26T06:33:00;98777.03;;;-1.96;92.86
21359;BME280;13506;50.852;20.632;2023-01-26T06:35:32;98778.59;;;-1.86;92.98
21359;BME280;13506;50.852;20.632;2023-01-26T06:38:02;98779.81;;;-2.13;94.06
21359;BME280;13506;50.852;20.632;2023-01-26T06:40:31;98777.09;;;-2.02;94.00
21359;BME280;13506;50.852;20.632;2023-01-26T06:43:00;98779.66;;;-2.02;94.61
21359;BME280;13506;50.852;20.632;2023-01-26T06:45:28;98779.50;;;-1.92;94.14
21359;BME280;13506;50.852;20.632;2023-01-26T06:47:56;98782.88;;;-1.87;92.80
21359;BME280;13506;50.852;20.632;2023-01-26T06:50:29;98778.41;;;-1.75;92.79
21359;BME280;13506;50.852;20.632;2023-01-26T06:52:59;98773.38;;;-1.80;92.37
21359;BME280;13506;50.852;20.632;2023-01-26T06:55:42;98768.88;;;-1.67;92.77
21359;BME280;13506;50.852;20.632;2023-01-26T06:58:48;98770.53;;;-1.63;92.07
21359;BME280;13506;50.852;20.632;2023-01-26T07:01:54;98757.66;;;-1.60;91.60
21359;BME280;13506;50.852;20.632;2023-01-26T07:04:25;98768.00;;;-1.66;91.54
21359;BME280;13506;50.852;20.632;2023-01-26T07:06:53;98760.47;;;-1.75;93.08
21359;BME280;13506;50.852;20.632;2023-01-26T07:09:21;98759.44;;;-2.21;94.76
21359;BME280;13506;50.852;20.632;2023-01-26T07:11:51;98759.47;;;-2.25;94.71
21359;BME280;13506;50.852;20.632;2023-01-26T07:14:19;98766.47;;;-2.37;95.68
21359;BME280;13506;50.852;20.632;2023-01-26T07:16:46;98760.66;;;-2.50;96.67
21359;BME280;13506;50.852;20.632;2023-01-26T07:19:15;98762.25;;;-2.41;95.65
21359;BME280;13506;50.852;20.632;2023-01-26T07:21:42;98765.28;;;-2.78;97.26
21359;BME280;13506;50.852;20.632;2023-01-26T07:24:11;98776.50;;;-2.86;99.02
21359;BME280;13506;50.852;20.632;2023-01-26T07:26:39;98779.97;;;-2.94;99.64
21359;BME280;13506;50.852;20.632;2023-01-26T07:29:08;98786.53;;;-2.70;98.28
21359;BME280;13506;50.852;20.632;2023-01-26T07:31:36;98778.94;;;-2.76;98.14
21359;BME280;13506;50.852;20.632;2023-01-26T07:34:04;98783.72;;;-2.51;97.36
21359;BME280;13506;50.852;20.632;2023-01-26T07:36:32;98769.03;;;-2.37;96.73
21359;BME280;13506;50.852;20.632;2023-01-26T07:39:00;98775.69;;;-2.22;95.36
21359;BME280;13506;50.852;20.632;2023-01-26T07:41:28;98779.97;;;-2.25;95.82
21359;BME280;13506;50.852;20.632;2023-01-26T07:43:57;98783.22;;;-2.11;94.84
21359;BME280;13506;50.852;20.632;2023-01-26T07:46:26;98777.94;;;-2.02;94.32
21359;BME280;13506;50.852;20.632;2023-01-26T07:48:54;98773.53;;;-1.92;94.86
21359;BME280;13506;50.852;20.632;2023-01-26T07:51:23;98775.28;;;-1.93;94.20
21359;BME280;13506;50.852;20.632;2023-01-26T07:53:51;98774.34;;;-1.89;94.29
21359;BME280;13506;50.852;20.632;2023-01-26T07:56:18;98767.41;;;-1.80;93.56
21359;BME280;13506;50.852;20.632;2023-01-26T07:58:50;98775.28;;;-1.94;94.57
21359;BME280;13506;50.852;20.632;2023-01-26T08:01:18;98776.91;;;-1.87;94.70
21359;BME280;13506;50.852;20.632;2023-01-26T08:03:50;98774.22;;;-1.81;94.38
21359;BME280;13506;50.852;20.632;2023-01-26T08:06:19;98773.31;;;-1.77;94.07
21359;BME280;13506;50.852;20.632;2023-01-26T08:08:48;98777.56;;;-1.74;93.56
21359;BME280;13506;50.852;20.632;2023-01-26T08:11:19;98778.25;;;-1.64;93.39
21359;BME280;13506;50.852;20.632;2023-01-26T08:13:48;98768.81;;;-1.64;93.77
21359;BME280;13506;50.852;20.632;2023-01-26T08:16:17;98775.75;;;-1.68;92.91
21359;BME280;13506;50.852;20.632;2023-01-26T08:18:46;98772.97;;;-2.13;94.20
21359;BME280;13506;50.852;20.632;2023-01-26T08:21:17;98772.09;;;-2.10;95.03
21359;BME280;13506;50.852;20.632;2023-01-26T08:23:48;98774.09;;;-2.31;98.02
21359;BME280;13506;50.852;20.632;2023-01-26T08:26:17;98782.16;;;-2.61;97.61
21359;BME280;13506;50.852;20.632;2023-01-26T08:28:46;98769.53;;;-2.75;98.74
21359;BME280;13506;50.852;20.632;2023-01-26T08:31:16;98763.03;;;-3.07;99.76
21359;BME280;13506;50.852;20.632;2023-01-26T08:33:46;98772.53;;;-3.17;100.00
21359;BME280;13506;50.852;20.632;2023-01-26T08:36:18;98771.84;;;-3.34;100.00
21359;BME280;13506;50.852;20.632;2023-01-26T08:38:46;98766.47;;;-3.08;100.00
21359;BME280;13506;50.852;20.632;2023-01-26T08:41:14;98773.56;;;-3.35;100.00
21359;BME280;13506;50.852;20.632;2023-01-26T08:43:42;98765.78;;;-3.27;100.00
21359;BME280;13506;50.852;20.632;2023-01-26T08:46:11;98762.34;;;-3.23;100.00
21359;BME280;13506;50.852;20.632;2023-01-26T08:48:38;98762.84;;;-2.88;100.00
21359;BME280;13506;50.852;20.632;2023-01-26T08:51:07;98764.13;;;-3.31;100.00
21359;BME280;13506;50.852;20.632;2023-01-26T08:53:37;98776.91;;;-3.26;100.00
21359;BME280;13506;50.852;20.632;2023-01-26T08:56:07;98774.25;;;-3.19;100.00
21359;BME280;13506;50.852;20.632;2023-01-26T08:58:35;98774.78;;;-2.86;99.87
21359;BME280;13506;50.852;20.632;2023-01-26T09:01:04;98761.66;;;-2.60;99.08
21359;BME280;13506;50.852;20.632;2023-01-26T09:03:32;98754.56;;;-2.38;98.03
21359;BME280;13506;50.852;20.632;2023-01-26T09:06:02;98753.44;;;-2.20;97.53
21359;BME280;13506;50.852;20.632;2023-01-26T09:08:30;98741.22;;;-2.01;97.23
21359;BME280;13506;50.852;20.632;2023-01-26T09:11:00;98745.34;;;-1.94;95.57
21359;BME280;13506;50.852;20.632;2023-01-26T09:13:28;98736.63;;;-1.80;94.86
21359;BME280;13506;50.852;20.632;2023-01-26T09:15:56;98741.59;;;-1.71;93.82
21359;BME280;13506;50.852;20.632;2023-01-26T09:18:24;98740.03;;;-1.81;92.92
21359;BME280;13506;50.852;20.632;2023-01-26T09:20:52;98741.25;;;-2.04;93.59
21359;BME280;13506;50.852;20.632;2023-01-26T09:23:21;98743.66;;;-2.54;96.65
21359;BME280;13506;50.852;20.632;2023-01-26T09:25:52;98743.31;;;-2.29;95.79
21359;BME280;13506;50.852;20.632;2023-01-26T09:28:22;98747.34;;;-2.11;95.06
21359;BME280;13506;50.852;20.632;2023-01-26T09:30:50;98746.25;;;-1.96;95.65
21359;BME280;13506;50.852;20.632;2023-01-26T09:33:18;98738.50;;;-1.92;93.67
21359;BME280;13506;50.852;20.632;2023-01-26T09:35:47;98748.56;;;-1.79;93.99
21359;BME280;13506;50.852;20.632;2023-01-26T09:38:15;98739.38;;;-1.93;93.38
21359;BME280;13506;50.852;20.632;2023-01-26T09:40:51;98735.25;;;-2.04;93.93
21359;BME280;13506;50.852;20.632;2023-01-26T09:43:31;98732.44;;;-1.88;93.46
21359;BME280;13506;50.852;20.632;2023-01-26T09:46:19;98728.97;;;-1.85;93.36
21359;BME280;13506;50.852;20.632;2023-01-26T09:48:59;98728.47;;;-2.07;94.78
21359;BME280;13506;50.852;20.632;2023-01-26T09:51:33;98723.09;;;-2.51;95.00
21359;BME280;13506;50.852;20.632;2023-01-26T09:54:11;98732.22;;;-2.30;95.44
21359;BME280;13506;50.852;20.632;2023-01-26T09:56:42;98737.38;;;-2.33;95.42
21359;BME280;13506;50.852;20.632;2023-01-26T09:59:24;98728.63;;;-2.16;95.20
21359;BME280;13506;50.852;20.632;2023-01-26T10:02:00;98730.13;;;-2.03;94.63
21359;BME280;13506;50.852;20.632;2023-01-26T10:04:33;98727.28;;;-2.42;95.20
21359;BME280;13506;50.852;20.632;2023-01-26T10:07:08;98725.31;;;-2.90;96.68
21359;BME280;13506;50.852;20.632;2023-01-26T10:09:51;98715.97;;;-2.94;97.74
21359;BME280;13506;50.852;20.632;2023-01-26T10:12:24;98717.69;;;-2.94;97.44
21359;BME280;13506;50.852;20.632;2023-01-26T10:15:00;98720.63;;;-3.30;98.96
21359;BME280;13506;50.852;20.632;2023-01-26T10:17:32;98714.28;;;-2.95;98.23
21359;BME280;13506;50.852;20.632;2023-01-26T10:20:05;98710.69;;;-2.80;97.54
21359;BME280;13506;50.852;20.632;2023-01-26T10:22:39;98709.50;;;-2.54;97.26
21359;BME280;13506;50.852;20.632;2023-01-26T10:25:16;98703.25;;;-2.35;95.73
21359;BME280;13506;50.852;20.632;2023-01-26T10:27:44;98699.63;;;-2.21;95.68
21359;BME280;13506;50.852;20.632;2023-01-26T10:30:16;98700.00;;;-2.46;95.34
21359;BME280;13506;50.852;20.632;2023-01-26T10:32:47;98704.19;;;-2.40;95.84
21359;BME280;13506;50.852;20.632;2023-01-26T10:35:19;98696.31;;;-2.26;95.27
21359;BME280;13506;50.852;20.632;2023-01-26T10:37:48;98695.25;;;-2.15;94.95
21359;BME280;13506;50.852;20.632;2023-01-26T10:40:18;98697.53;;;-2.54;94.36
21359;BME280;13506;50.852;20.632;2023-01-26T10:42:54;98694.91;;;-2.47;95.71
21359;BME280;13506;50.852;20.632;2023-01-26T10:45:28;98697.25;;;-2.32;95.62
21359;BME280;13506;50.852;20.632;2023-01-26T10:48:13;98687.81;;;-2.29;95.91
21359;BME280;13506;50.852;20.632;2023-01-26T10:50:43;98691.13;;;-2.22;94.88
21359;BME280;13506;50.852;20.632;2023-01-26T10:53:15;98675.53;;;-2.08;94.59
21359;BME280;13506;50.852;20.632;2023-01-26T10:56:00;98682.09;;;-1.92;94.31
21359;BME280;13506;50.852;20.632;2023-01-26T10:58:46;98670.81;;;-1.83;93.86
21359;BME280;13506;50.852;20.632;2023-01-26T11:01:18;98672.75;;;-1.94;93.62
21359;BME280;13506;50.852;20.632;2023-01-26T11:04:03;98681.25;;;-1.94;93.99
21359;BME280;13506;50.852;20.632;2023-01-26T11:06:32;98677.66;;;-1.82;93.07
21359;BME280;13506;50.852;20.632;2023-01-26T11:09:16;98670.19;;;-1.96;93.11
21359;BME280;13506;50.852;20.632;2023-01-26T11:11:55;98659.63;;;-1.77;92.74
21359;BME280;13506;50.852;20.632;2023-01-26T11:14:24;98660.34;;;-1.69;93.15
21359;BME280;13506;50.852;20.632;2023-01-26T11:17:00;98647.63;;;-1.74;91.88
21359;BME280;13506;50.852;20.632;2023-01-26T11:19:59;98655.75;;;-2.57;94.72
21359;BME280;13506;50.852;20.632;2023-01-26T11:22:36;98654.94;;;-2.03;92.71
21359;BME280;13506;50.852;20.632;2023-01-26T11:25:16;98646.91;;;-1.83;92.57
21359;BME280;13506;50.852;20.632;2023-01-26T11:28:01;98655.03;;;-2.08;91.80
21359;BME280;13506;50.852;20.632;2023-01-26T11:31:15;98640.84;;;-1.78;91.56
21359;BME280;13506;50.852;20.632;2023-01-26T11:33:57;98642.56;;;-1.78;91.21
21359;BME280;13506;50.852;20.632;2023-01-26T11:36:34;98637.34;;;-1.72;90.59
21359;BME280;13506;50.852;20.632;2023-01-26T11:39:14;98629.50;;;-1.66;90.89
21359;BME280;13506;50.852;20.632;2023-01-26T11:41:55;98629.41;;;-1.60;90.86
21359;BME280;13506;50.852;20.632;2023-01-26T11:44:59;98616.53;;;-1.57;90.41
21359;BME280;13506;50.852;20.632;2023-01-26T11:47:48;98617.44;;;-1.59;89.94
21359;BME280;13506;50.852;20.632;2023-01-26T11:50:33;98619.72;;;-1.46;91.09
21359;BME280;13506;50.852;20.632;2023-01-26T11:53:18;98616.22;;;-1.41;90.77
21359;BME280;13506;50.852;20.632;2023-01-26T11:56:05;98623.00;;;-1.37;89.76
21359;BME280;13506;50.852;20.632;2023-01-26T11:58:42;98599.69;;;-1.28;90.74
21359;BME280;13506;50.852;20.632;2023-01-26T12:01:18;98597.00;;;-1.22;90.09
21359;BME280;13506;50.852;20.632;2023-01-26T12:03:49;98603.16;;;-1.29;89.09
21359;BME280;13506;50.852;20.632;2023-01-26T12:06:35;98596.25;;;-1.26;89.05
21359;BME280;13506;50.852;20.632;2023-01-26T12:09:08;98593.63;;;-1.24;88.59
21359;BME280;13506;50.852;20.632;2023-01-26T12:11:51;98589.22;;;-1.17;89.16
21359;BME280;13506;50.852;20.632;2023-01-26T12:14:24;98584.88;;;-1.14;89.25
21359;BME280;13506;50.852;20.632;2023-01-26T12:17:19;98588.16;;;-1.07;89.16
21359;BME280;13506;50.852;20.632;2023-01-26T12:19:58;98575.25;;;-1.04;89.25
21359;BME280;13506;50.852;20.632;2023-01-26T12:22:33;98579.47;;;-1.01;88.06
21359;BME280;13506;50.852;20.632;2023-01-26T12:25:14;98577.50;;;-1.29;87.84
21359;BME280;13506;50.852;20.632;2023-01-26T12:27:51;98579.00;;;-1.19;88.02
21359;BME280;13506;50.852;20.632;2023-01-26T12:30:33;98574.00;;;-1.25;88.02
21359;BME280;13506;50.852;20.632;2023-01-26T12:33:02;98582.88;;;-1.43;88.44
21359;BME280;13506;50.852;20.632;2023-01-26T12:35:43;98579.03;;;-1.64;89.10
21359;BME280;13506;50.852;20.632;2023-01-26T12:38:22;98575.19;;;-1.43;89.48
21359;BME280;13506;50.852;20.632;2023-01-26T12:41:09;98567.38;;;-1.37;88.71
21359;BME280;13506;50.852;20.632;2023-01-26T12:43:57;98574.00;;;-1.27;88.73
21359;BME280;13506;50.852;20.632;2023-01-26T12:46:35;98567.81;;;-1.16;87.46
21359;BME280;13506;50.852;20.632;2023-01-26T12:49:13;98570.38;;;-1.16;87.40
21359;BME280;13506;50.852;20.632;2023-01-26T12:51:49;98571.16;;;-1.13;87.24
21359;BME280;13506;50.852;20.632;2023-01-26T12:54:29;98572.75;;;-1.07;86.91
21359;BME280;13506;50.852;20.632;2023-01-26T12:57:05;98583.78;;;-1.02;86.45
21359;BME280;13506;50.852;20.632;2023-01-26T12:59:36;98577.75;;;-1.01;85.71
21359;BME280;13506;50.852;20.632;2023-01-26T13:02:25;98565.69;;;-0.97;85.64
21359;BME280;13506;50.852;20.632;2023-01-26T13:04:55;98570.84;;;-0.97;84.77
21359;BME280;13506;50.852;20.632;2023-01-26T13:07:33;98563.13;;;-0.97;84.68
21359;BME280;13506;50.852;20.632;2023-01-26T13:10:26;98570.84;;;-0.97;84.86
21359;BME280;13506;50.852;20.632;2023-01-26T13:12:57;98575.84;;;-0.91;85.75
21359;BME280;13506;50.852;20.632;2023-01-26T13:15:27;98568.13;;;-0.91;84.92
21359;BME280;13506;50.852;20.632;2023-01-26T13:17:57;98572.34;;;-0.89;85.45
21359;BME280;13506;50.852;20.632;2023-01-26T13:20:42;98575.72;;;-0.87;84.57
21359;BME280;13506;50.852;20.632;2023-01-26T13:23:36;98574.00;;;-0.86;84.42
21359;BME280;13506;50.852;20.632;2023-01-26T13:29:31;98564.50;;;-0.82;84.35